Time;durP1;ratioP1;P1;durP2;ratioP2;P2;SDS_P1;SDS_P2;PMS_P1;PMS_P2;Temp;Humidity;BMP_temperature;BMP_pressure;BME280_temperature;BME280_humidity;BME280_pressure;Samples;Min_cycle;Max_cycle;Signal;HPM_P1;HPM_P2
2021/11/22 00:00:13;;;;;;;11.30;7.73;;;3.90;99.90;;;;;;2613672;54;20432;-73
2021/11/22 00:02:40;;;;;;;11.83;9.50;;;3.80;99.90;;;;;;2612552;54;20564;-74
2021/11/22 00:05:06;;;;;;;10.13;7.50;;;3.80;99.90;;;;;;2612980;54;20403;-73
2021/11/22 00:07:32;;;;;;;11.93;8.10;;;4.00;99.90;;;;;;2613442;54;20415;-73
2021/11/22 00:10:01;;;;;;;16.30;8.80;;;3.90;99.90;;;;;;2613203;54;20543;-74
2021/11/22 00:12:29;;;;;;;15.43;8.00;;;4.00;99.90;;;;;;2612648;54;20151;-73
2021/11/22 00:14:55;;;;;;;19.90;9.20;;;4.00;99.90;;;;;;2612369;54;20570;-73
2021/11/22 00:17:21;;;;;;;11.97;8.33;;;4.00;99.90;;;;;;2613707;54;20420;-74
2021/11/22 00:19:48;;;;;;;16.03;8.27;;;3.90;99.90;;;;;;2613583;54;20155;-72
2021/11/22 00:22:14;;;;;;;14.83;7.57;;;3.80;99.90;;;;;;2613904;54;20147;-73
2021/11/22 00:24:40;;;;;;;8.43;7.57;;;3.80;99.90;;;;;;2612190;54;21299;-73
2021/11/22 00:27:06;;;;;;;10.60;8.00;;;3.90;99.90;;;;;;2613388;54;20427;-73
2021/11/22 00:29:32;;;;;;;11.67;8.20;;;3.70;99.90;;;;;;2612542;50;20193;-72
2021/11/22 00:32:15;;;;;;;8.33;7.47;;;3.80;99.90;;;;;;2613647;54;20554;-72
2021/11/22 00:35:11;;;;;;;8.37;7.33;;;3.80;99.90;;;;;;2611547;54;20403;-73
2021/11/22 00:37:49;;;;;;;20.60;7.27;;;3.80;99.90;;;;;;2611358;47;20436;-73
2021/11/22 00:40:15;;;;;;;11.83;7.67;;;3.70;99.90;;;;;;2612226;54;20402;-73
2021/11/22 00:42:45;;;;;;;11.80;7.47;;;4.00;99.90;;;;;;2611894;54;21428;-73
2021/11/22 00:45:13;;;;;;;14.63;9.40;;;4.30;99.90;;;;;;2611460;54;21010;-73
2021/11/22 00:47:39;;;;;;;10.83;8.33;;;4.60;99.90;;;;;;2611273;54;20455;-74
2021/11/22 00:50:07;;;;;;;18.23;8.37;;;4.80;99.90;;;;;;2612560;54;20427;-73
2021/11/22 00:52:34;;;;;;;12.27;6.47;;;5.10;99.90;;;;;;2612140;54;20415;-73
2021/11/22 00:54:59;;;;;;;16.00;8.60;;;5.40;99.90;;;;;;2611478;47;20453;-73
2021/11/22 00:57:25;;;;;;;13.87;7.53;;;5.50;99.90;;;;;;2611133;47;20423;-73
2021/11/22 00:59:51;;;;;;;16.43;6.77;;;5.40;99.90;;;;;;2611759;39;21198;-73
2021/11/22 01:02:18;;;;;;;17.33;7.83;;;5.50;99.90;;;;;;2611025;54;20704;-73
2021/11/22 01:04:44;;;;;;;12.17;7.30;;;5.40;99.90;;;;;;2611337;54;20147;-72
2021/11/22 01:07:10;;;;;;;17.17;7.57;;;5.30;99.90;;;;;;2612338;31;20985;-73
2021/11/22 01:09:36;;;;;;;10.70;7.50;;;5.50;99.90;;;;;;2612437;47;20174;-74
2021/11/22 01:12:02;;;;;;;13.43;7.70;;;5.80;99.90;;;;;;2613163;54;20394;-73
2021/11/22 01:14:28;;;;;;;21.67;8.83;;;5.70;99.90;;;;;;2612553;39;20546;-73
2021/11/22 01:16:54;;;;;;;12.20;8.87;;;5.60;99.90;;;;;;2612646;54;20964;-73
2021/11/22 01:19:20;;;;;;;20.93;9.40;;;5.60;99.90;;;;;;2613082;54;20440;-72
2021/11/22 01:21:46;;;;;;;11.80;7.73;;;5.70;99.90;;;;;;2612836;47;20167;-72
2021/11/22 01:24:13;;;;;;;16.07;8.13;;;5.80;99.90;;;;;;2613734;46;20263;-73
2021/11/22 01:26:41;;;;;;;16.80;9.70;;;6.00;99.90;;;;;;2612545;47;20404;-73
2021/11/22 01:29:06;;;;;;;17.10;9.30;;;6.00;99.90;;;;;;2612812;54;20451;-73
2021/11/22 01:31:32;;;;;;;12.67;8.60;;;5.90;99.90;;;;;;2612703;54;20435;-73
2021/11/22 01:33:58;;;;;;;15.70;10.97;;;6.00;99.90;;;;;;2612396;54;20163;-73
2021/11/22 01:36:24;;;;;;;15.97;9.90;;;6.00;99.90;;;;;;2613188;54;20675;-73
2021/11/22 01:38:50;;;;;;;17.00;11.67;;;5.90;99.90;;;;;;2612777;39;20656;-73
2021/11/22 01:41:16;;;;;;;16.90;9.57;;;6.10;99.90;;;;;;2613538;54;20423;-73
2021/11/22 01:43:42;;;;;;;15.27;9.60;;;6.20;99.90;;;;;;2612673;54;20455;-74
2021/11/22 01:46:18;;;;;;;16.80;11.33;;;6.20;99.90;;;;;;2612823;54;20408;-73
2021/11/22 01:48:44;;;;;;;18.40;11.70;;;6.20;99.90;;;;;;2612267;54;20243;-73
2021/11/22 01:51:10;;;;;;;13.70;10.40;;;6.10;99.90;;;;;;2613202;54;20400;-73
2021/11/22 01:53:38;;;;;;;14.53;9.30;;;6.00;99.90;;;;;;2613286;54;20456;-73
2021/11/22 01:56:04;;;;;;;15.30;10.10;;;6.10;99.90;;;;;;2613501;54;21323;-73
2021/11/22 01:58:30;;;;;;;15.97;8.80;;;6.00;99.90;;;;;;2611834;54;20442;-73
2021/11/22 02:00:56;;;;;;;18.13;9.87;;;6.10;99.90;;;;;;2613195;54;20404;-74
2021/11/22 02:03:23;;;;;;;17.90;12.17;;;6.00;99.90;;;;;;2613655;54;20977;-73
2021/11/22 02:05:51;;;;;;;15.77;11.17;;;6.00;99.90;;;;;;2612961;54;20411;-74
2021/11/22 02:08:22;;;;;;;15.43;10.23;;;6.20;99.90;;;;;;2612717;47;20534;-74
2021/11/22 02:10:49;;;;;;;16.80;10.90;;;6.30;99.90;;;;;;2614018;54;20408;-73
2021/11/22 02:13:15;;;;;;;12.80;9.40;;;6.20;99.90;;;;;;2613183;54;20440;-72
2021/11/22 02:15:41;;;;;;;13.50;8.90;;;6.10;99.90;;;;;;2612825;54;20400;-73
2021/11/22 02:18:08;;;;;;;17.80;10.03;;;6.20;99.90;;;;;;2613629;54;20416;-73
2021/11/22 02:20:36;;;;;;;15.40;10.40;;;6.40;99.90;;;;;;2613543;54;20988;-74
2021/11/22 02:23:07;;;;;;;18.60;10.70;;;6.30;99.90;;;;;;2612723;54;20419;-72
2021/11/22 02:25:35;;;;;;;15.60;10.20;;;6.30;99.90;;;;;;2613281;54;20988;-73
2021/11/22 02:28:02;;;;;;;12.20;10.13;;;6.30;99.90;;;;;;2612936;54;20376;-73
2021/11/22 02:30:31;;;;;;;20.70;11.10;;;6.50;99.90;;;;;;2612725;47;20993;-73
2021/11/22 02:32:59;;;;;;;13.63;7.40;;;6.50;99.90;;;;;;2613539;54;20447;-74
2021/11/22 02:35:25;;;;;;;13.93;10.17;;;6.40;99.90;;;;;;2613237;54;20398;-73
2021/11/22 02:37:51;;;;;;;14.90;8.90;;;6.30;99.90;;;;;;2612810;54;20617;-73
2021/11/22 02:40:17;;;;;;;14.47;9.23;;;6.20;99.90;;;;;;2612988;39;20823;-74
2021/11/22 02:42:44;;;;;;;12.83;8.93;;;6.30;99.90;;;;;;2613193;54;20440;-73
2021/11/22 02:45:17;;;;;;;12.57;9.20;;;6.20;99.90;;;;;;2612882;39;20780;-73
2021/11/22 02:47:45;;;;;;;12.33;9.73;;;6.30;99.90;;;;;;2612916;39;20516;-73
2021/11/22 02:50:13;;;;;;;20.10;10.57;;;6.40;99.90;;;;;;2612903;54;20956;-73
2021/11/22 02:52:40;;;;;;;10.80;9.07;;;6.40;99.90;;;;;;2611728;54;20470;-73
2021/11/22 02:55:08;;;;;;;14.60;10.97;;;6.40;99.90;;;;;;2612095;54;20987;-73
2021/11/22 02:57:34;;;;;;;16.03;10.00;;;6.40;99.90;;;;;;2612148;54;20423;-73
2021/11/22 03:00:00;;;;;;;16.20;9.90;;;6.40;99.90;;;;;;2612945;54;20508;-72
2021/11/22 03:02:26;;;;;;;10.10;7.40;;;6.50;99.90;;;;;;2612121;47;20171;-73
2021/11/22 03:04:52;;;;;;;18.03;12.10;;;6.50;99.90;;;;;;2612912;39;20839;-74
2021/11/22 03:07:18;;;;;;;10.43;8.53;;;6.50;99.90;;;;;;2611662;54;20912;-72
2021/11/22 03:09:44;;;;;;;12.10;8.37;;;6.50;99.90;;;;;;2612176;54;20471;-73
2021/11/22 03:12:12;;;;;;;13.03;8.27;;;6.50;99.90;;;;;;2612529;54;20408;-72
2021/11/22 03:14:39;;;;;;;17.50;8.97;;;6.50;99.90;;;;;;2613064;39;20816;-73
2021/11/22 03:17:04;;;;;;;22.00;10.03;;;6.50;99.90;;;;;;2611576;54;20958;-73
2021/11/22 03:19:31;;;;;;;9.27;7.10;;;6.50;99.90;;;;;;2612565;54;20430;-74
2021/11/22 03:21:58;;;;;;;12.50;8.63;;;6.50;99.90;;;;;;2611814;54;20158;-73
2021/11/22 03:24:25;;;;;;;12.07;7.80;;;6.60;99.90;;;;;;2613413;54;20425;-72
2021/11/22 03:26:52;;;;;;;12.03;8.80;;;6.40;99.90;;;;;;2611866;39;20762;-72
2021/11/22 03:29:18;;;;;;;7.70;6.93;;;6.50;99.90;;;;;;2613508;54;20519;-73
2021/11/22 03:31:44;;;;;;;11.60;7.47;;;6.40;99.90;;;;;;2613232;54;20439;-73
2021/11/22 03:34:12;;;;;;;10.17;7.57;;;6.50;99.90;;;;;;2613322;39;20803;-73
2021/11/22 03:36:40;;;;;;;13.30;8.90;;;6.50;99.90;;;;;;2613172;54;20431;-72
2021/11/22 03:39:13;;;;;;;10.50;9.10;;;6.50;99.90;;;;;;2613600;39;20765;-74
2021/11/22 03:41:39;;;;;;;11.80;8.70;;;6.60;99.90;;;;;;2612420;54;20396;-72
2021/11/22 03:44:14;;;;;;;17.73;9.80;;;6.70;99.90;;;;;;2612875;51;20442;-74
2021/11/22 03:46:47;;;;;;;9.47;7.50;;;6.70;99.90;;;;;;2613602;39;20802;-72
2021/11/22 03:49:14;;;;;;;13.03;9.13;;;6.60;99.90;;;;;;2612299;54;20395;-73
2021/11/22 03:51:43;;;;;;;10.60;8.33;;;6.60;99.90;;;;;;2613526;54;21098;-73
2021/11/22 03:54:10;;;;;;;11.67;9.63;;;6.70;99.90;;;;;;2614299;54;20412;-72
2021/11/22 03:56:37;;;;;;;10.70;7.23;;;6.70;99.90;;;;;;2614528;39;20904;-73
2021/11/22 03:59:04;;;;;;;8.67;7.40;;;6.70;99.90;;;;;;2612551;54;20410;-72
2021/11/22 04:01:30;;;;;;;11.43;7.60;;;6.60;99.90;;;;;;2612567;54;20426;-73
2021/11/22 04:03:55;;;;;;;10.93;7.40;;;6.70;99.90;;;;;;2613629;54;20421;-73
2021/11/22 04:06:21;;;;;;;13.97;8.17;;;6.70;99.90;;;;;;2613448;54;20692;-73
2021/11/22 04:08:48;;;;;;;13.97;7.93;;;6.60;99.90;;;;;;2612891;54;20427;-73
2021/11/22 04:11:15;;;;;;;10.00;7.27;;;6.60;99.90;;;;;;2614113;54;20407;-74
2021/11/22 04:13:41;;;;;;;8.40;7.10;;;6.70;99.90;;;;;;2613755;39;20838;-74
2021/11/22 04:16:07;;;;;;;9.33;7.03;;;6.70;99.90;;;;;;2612857;54;20468;-73
2021/11/22 04:18:33;;;;;;;9.37;7.30;;;6.70;99.90;;;;;;2612955;39;20793;-73
2021/11/22 04:20:59;;;;;;;9.63;8.20;;;6.70;99.90;;;;;;2613024;54;20482;-72
2021/11/22 04:23:27;;;;;;;12.53;7.60;;;6.70;99.90;;;;;;2612375;46;20527;-74
2021/11/22 04:25:53;;;;;;;11.77;8.40;;;6.80;99.90;;;;;;2612449;47;20519;-72
2021/11/22 04:28:19;;;;;;;10.23;7.83;;;6.60;99.90;;;;;;2613331;54;20415;-72
2021/11/22 04:30:45;;;;;;;10.20;8.37;;;6.70;99.90;;;;;;2613401;54;20406;-72
2021/11/22 04:33:11;;;;;;;8.70;7.57;;;6.80;99.90;;;;;;2612590;54;20406;-73
2021/11/22 04:35:37;;;;;;;8.70;7.20;;;6.90;99.90;;;;;;2613203;54;20412;-72
2021/11/22 04:38:04;;;;;;;9.23;7.60;;;7.00;99.90;;;;;;2614071;39;20903;-73
2021/11/22 04:40:30;;;;;;;8.63;7.67;;;6.80;99.90;;;;;;2613247;54;20519;-73
2021/11/22 04:42:56;;;;;;;8.13;7.13;;;6.70;99.90;;;;;;2612492;39;21010;-73
2021/11/22 04:45:29;;;;;;;7.70;6.37;;;6.70;99.90;;;;;;2613668;39;20784;-73
2021/11/22 04:47:58;;;;;;;11.50;7.27;;;6.60;99.90;;;;;;2612614;47;20539;-73
2021/11/22 04:50:24;;;;;;;8.40;7.40;;;6.60;99.90;;;;;;2613668;54;20387;-72
2021/11/22 04:52:50;;;;;;;8.67;7.10;;;6.70;99.90;;;;;;2613640;54;20419;-72
2021/11/22 04:55:19;;;;;;;8.70;7.70;;;6.80;99.90;;;;;;2613215;46;20431;-74
2021/11/22 04:57:45;;;;;;;9.70;8.57;;;6.80;99.90;;;;;;2611927;54;20467;-73
2021/11/22 05:00:14;;;;;;;7.90;7.10;;;6.90;99.90;;;;;;2613393;54;20399;-74
2021/11/22 05:02:42;;;;;;;12.13;8.40;;;6.80;99.90;;;;;;2613845;39;21825;-74
2021/11/22 05:05:09;;;;;;;9.87;8.20;;;6.70;99.90;;;;;;2612928;54;20417;-72
2021/11/22 05:07:35;;;;;;;10.43;8.20;;;6.60;99.90;;;;;;2612875;54;20436;-74
2021/11/22 05:10:01;;;;;;;12.17;8.50;;;6.40;99.90;;;;;;2613330;54;20387;-73
2021/11/22 05:12:27;;;;;;;8.23;6.83;;;6.40;99.90;;;;;;2613364;54;20403;-72
2021/11/22 05:14:53;;;;;;;13.30;8.50;;;6.10;99.90;;;;;;2612593;54;20506;-73
2021/11/22 05:17:19;;;;;;;9.40;7.60;;;6.00;99.90;;;;;;2611963;54;20146;-73
2021/11/22 05:19:46;;;;;;;12.70;9.03;;;5.90;99.90;;;;;;2613428;54;20143;-73
2021/11/22 05:22:18;;;;;;;11.00;8.70;;;5.80;99.90;;;;;;2612752;54;20157;-73
2021/11/22 05:24:49;;;;;;;12.57;9.73;;;5.70;99.90;;;;;;2613322;54;20434;-73
2021/11/22 05:27:24;;;;;;;11.13;8.47;;;5.80;99.90;;;;;;2612986;31;20843;-74
2021/11/22 05:29:50;;;;;;;11.67;9.07;;;5.90;99.90;;;;;;2612156;54;20411;-73
2021/11/22 05:32:17;;;;;;;11.07;8.70;;;6.10;99.90;;;;;;2613584;54;20451;-74
2021/11/22 05:34:52;;;;;;;13.20;10.00;;;6.30;99.90;;;;;;2612760;54;20411;-72
2021/11/22 05:37:19;;;;;;;11.33;10.13;;;6.40;99.90;;;;;;2612965;54;20524;-73
2021/11/22 05:39:46;;;;;;;10.77;8.70;;;6.50;99.90;;;;;;2612568;54;20391;-73
2021/11/22 05:42:12;;;;;;;10.80;9.67;;;6.70;99.90;;;;;;2612621;54;20371;-72
2021/11/22 05:44:38;;;;;;;9.67;7.97;;;6.60;99.90;;;;;;2613100;54;20404;-73
2021/11/22 05:47:06;;;;;;;9.27;7.93;;;6.30;99.90;;;;;;2613376;54;20471;-71
2021/11/22 05:49:35;;;;;;;12.80;10.03;;;6.20;99.90;;;;;;2612346;39;20761;-73
2021/11/22 05:52:03;;;;;;;12.73;11.13;;;6.10;99.90;;;;;;2611918;54;20935;-72
2021/11/22 05:54:32;;;;;;;12.20;10.30;;;6.30;99.90;;;;;;2612500;54;20395;-73
2021/11/22 05:56:59;;;;;;;12.53;10.90;;;6.30;99.90;;;;;;2611851;47;20423;-73
2021/11/22 05:59:25;;;;;;;15.70;11.87;;;6.40;99.90;;;;;;2613053;54;21355;-73
2021/11/22 06:01:51;;;;;;;13.20;10.17;;;6.30;99.90;;;;;;2612380;47;20403;-73
2021/11/22 06:04:17;;;;;;;14.70;11.67;;;6.30;99.90;;;;;;2612537;46;20200;-73
2021/11/22 06:06:43;;;;;;;14.20;11.23;;;6.20;99.90;;;;;;2612170;54;20428;-72
2021/11/22 06:09:09;;;;;;;16.40;13.07;;;6.20;99.90;;;;;;2613430;54;20658;-72
2021/11/22 06:11:35;;;;;;;15.63;11.27;;;6.10;99.90;;;;;;2612444;54;20431;-72
2021/11/22 06:14:01;;;;;;;17.33;14.37;;;5.90;99.90;;;;;;2612903;54;20471;-73
2021/11/22 06:16:27;;;;;;;20.40;13.87;;;5.90;99.90;;;;;;2613116;54;20274;-72
2021/11/22 06:18:53;;;;;;;24.40;16.00;;;5.90;99.90;;;;;;2612155;54;22018;-73
2021/11/22 06:21:19;;;;;;;23.37;15.80;;;5.90;99.90;;;;;;2611713;54;20423;-74
2021/11/22 06:23:45;;;;;;;17.07;13.43;;;5.90;99.90;;;;;;2611979;54;20147;-74
2021/11/22 06:26:11;;;;;;;23.37;16.00;;;6.00;99.90;;;;;;2611407;46;22238;-74
2021/11/22 06:28:37;;;;;;;19.10;12.90;;;6.00;99.90;;;;;;2612843;54;20423;-74
2021/11/22 06:31:02;;;;;;;22.63;16.03;;;5.90;99.90;;;;;;2610752;54;20151;-72
2021/11/22 06:33:28;;;;;;;21.90;16.77;;;5.80;99.90;;;;;;2611936;54;20165;-73
2021/11/22 06:35:54;;;;;;;19.60;14.97;;;5.80;99.90;;;;;;2613998;54;21067;-73
2021/11/22 06:38:20;;;;;;;24.30;16.40;;;5.80;99.90;;;;;;2612268;39;20555;-73
2021/11/22 06:40:47;;;;;;;20.13;15.13;;;5.90;99.90;;;;;;2607941;54;21581;-73
2021/11/22 06:43:13;;;;;;;18.47;14.80;;;5.80;99.90;;;;;;2608685;54;20530;-72
2021/11/22 06:45:39;;;;;;;20.63;16.50;;;5.80;99.90;;;;;;2608473;47;20427;-73
2021/11/22 06:48:05;;;;;;;19.50;14.87;;;5.80;99.90;;;;;;2610263;54;20153;-72
2021/11/22 06:50:32;;;;;;;15.90;12.37;;;5.80;99.90;;;;;;2609411;39;22401;-72
2021/11/22 06:52:58;;;;;;;20.93;13.93;;;5.70;99.90;;;;;;2608329;54;20428;-73
2021/11/22 06:55:25;;;;;;;23.20;16.27;;;5.70;99.90;;;;;;2607641;54;22974;-73
2021/11/22 06:57:51;;;;;;;22.20;15.77;;;5.60;99.90;;;;;;2607721;54;20510;-73
2021/11/22 07:00:20;;;;;;;12.80;10.77;;;5.80;99.90;;;;;;2608590;54;20575;-75
2021/11/22 07:02:50;;;;;;;13.53;8.60;;;5.80;99.90;;;;;;2608318;54;20456;-73
2021/11/22 07:05:20;;;;;;;16.33;13.07;;;5.70;99.90;;;;;;2610034;47;20394;-73
2021/11/22 07:07:47;;;;;;;19.20;13.40;;;5.60;99.90;;;;;;2610506;54;20426;-73
2021/11/22 07:10:14;;;;;;;17.23;13.03;;;5.90;99.90;;;;;;2611686;54;20427;-74
2021/11/22 07:12:40;;;;;;;17.90;12.50;;;5.90;99.90;;;;;;2608842;54;20423;-73
2021/11/22 07:15:08;;;;;;;15.93;13.00;;;6.10;99.90;;;;;;2611656;54;21433;-73
2021/11/22 07:17:34;;;;;;;15.13;12.17;;;6.00;99.90;;;;;;2611324;54;20379;-73
2021/11/22 07:20:00;;;;;;;15.13;11.60;;;6.00;99.90;;;;;;2612152;39;20803;-73
2021/11/22 07:22:26;;;;;;;17.40;14.20;;;6.00;99.90;;;;;;2611677;39;20793;-72
2021/11/22 07:24:52;;;;;;;23.60;14.00;;;6.10;99.90;;;;;;2610320;54;20972;-73
2021/11/22 07:27:24;;;;;;;18.40;13.30;;;6.30;99.90;;;;;;2612267;54;20545;-73
2021/11/22 07:29:50;;;;;;;18.30;14.37;;;6.20;99.90;;;;;;2611762;54;20422;-73
2021/11/22 07:32:16;;;;;;;17.00;12.00;;;6.00;99.90;;;;;;2611051;54;20455;-73
2021/11/22 07:34:43;;;;;;;16.43;13.43;;;5.80;99.90;;;;;;2611560;54;20465;-73
2021/11/22 07:37:09;;;;;;;15.57;13.33;;;5.80;99.90;;;;;;2609832;54;20175;-72
2021/11/22 07:39:35;;;;;;;18.17;14.57;;;5.70;99.90;;;;;;2609709;47;20480;-73
2021/11/22 07:42:01;;;;;;;18.90;14.87;;;5.70;99.90;;;;;;2611134;54;20411;-73
2021/11/22 07:44:27;;;;;;;13.53;12.00;;;5.70;99.90;;;;;;2610644;54;20929;-73
2021/11/22 07:46:56;;;;;;;16.20;12.67;;;5.60;99.90;;;;;;2628704;36;20586;-72
2021/11/22 07:49:22;;;;;;;12.37;10.10;;;5.60;99.90;;;;;;2612157;54;20722;-73
2021/11/22 07:51:48;;;;;;;12.13;8.97;;;5.60;99.90;;;;;;2612448;54;20392;-73
2021/11/22 07:54:15;;;;;;;13.80;10.13;;;5.50;99.90;;;;;;2612548;54;20142;-73
2021/11/22 07:56:43;;;;;;;17.20;11.00;;;5.60;99.90;;;;;;2612199;54;21031;-73
2021/11/22 07:59:10;;;;;;;14.17;9.57;;;5.60;99.90;;;;;;2612233;54;20434;-73
2021/11/22 08:01:37;;;;;;;13.57;10.57;;;5.50;99.90;;;;;;2612059;54;20436;-73
2021/11/22 08:04:03;;;;;;;9.40;8.50;;;5.50;99.90;;;;;;2610204;54;20965;-74
2021/11/22 08:06:29;;;;;;;13.40;10.70;;;5.40;99.90;;;;;;2609742;39;20926;-74
2021/11/22 08:08:55;;;;;;;14.00;11.30;;;5.40;99.90;;;;;;2609555;54;20400;-73
2021/11/22 08:13:49;;;;;;;13.20;10.67;;;5.50;99.90;;;;;;2646327;36;20531;-74
2021/11/22 08:16:15;;;;;;;14.17;12.23;;;5.50;99.90;;;;;;2609187;54;20454;-72
2021/11/22 08:18:41;;;;;;;21.23;12.23;;;5.60;99.90;;;;;;2610682;54;20532;-73
2021/11/22 08:21:08;;;;;;;10.97;9.13;;;5.70;99.90;;;;;;2611379;54;20964;-73
2021/11/22 08:23:34;;;;;;;11.43;10.30;;;5.80;99.90;;;;;;2611313;47;20976;-73
2021/11/22 08:26:00;;;;;;;13.47;11.47;;;5.90;99.90;;;;;;2610786;54;20414;-74
2021/11/22 08:28:26;;;;;;;12.90;10.27;;;6.10;99.90;;;;;;2609977;47;20563;-72
2021/11/22 08:30:52;;;;;;;11.57;10.37;;;6.00;99.90;;;;;;2610827;47;20462;-74
2021/11/22 08:33:18;;;;;;;11.37;9.63;;;5.90;99.90;;;;;;2611861;54;20524;-73
2021/11/22 08:35:48;;;;;;;12.53;10.07;;;5.80;99.90;;;;;;2611104;54;20230;-74
2021/11/22 08:38:14;;;;;;;13.70;11.73;;;5.80;99.90;;;;;;2609488;54;20407;-74
2021/11/22 08:40:42;;;;;;;10.30;8.77;;;5.60;99.90;;;;;;2612649;54;20423;-74
2021/11/22 08:43:10;;;;;;;10.23;9.00;;;5.60;99.90;;;;;;2611070;47;21936;-74
2021/11/22 08:45:37;;;;;;;14.47;10.60;;;5.70;99.90;;;;;;2612331;54;21282;-74
2021/11/22 08:48:03;;;;;;;15.23;12.57;;;5.70;99.90;;;;;;2610823;54;20447;-73
2021/11/22 08:50:32;;;;;;;11.50;10.17;;;5.90;99.90;;;;;;2612203;47;20511;-73
2021/11/22 08:52:58;;;;;;;8.10;5.30;;;5.80;99.90;;;;;;2613124;54;20396;-73
2021/11/22 08:55:24;;;;;;;13.90;11.20;;;5.90;99.90;;;;;;2611051;48;20531;-73
2021/11/22 08:57:50;;;;;;;16.80;12.63;;;5.90;99.90;;;;;;2611320;46;20421;-73
2021/11/22 09:00:25;;;;;;;17.17;11.00;;;6.10;99.90;;;;;;2612277;54;20462;-73
2021/11/22 09:02:52;;;;;;;15.53;13.23;;;6.10;99.90;;;;;;2611550;54;20414;-72
2021/11/22 09:05:18;;;;;;;10.47;9.37;;;6.50;99.90;;;;;;2611708;54;20423;-73
2021/11/22 09:07:44;;;;;;;10.97;9.20;;;6.50;99.90;;;;;;2612365;39;20789;-73
2021/11/22 09:10:10;;;;;;;17.30;10.97;;;6.30;99.90;;;;;;2612265;54;20179;-73
2021/11/22 09:12:36;;;;;;;11.20;10.07;;;6.20;99.90;;;;;;2610150;54;20165;-74
2021/11/22 09:15:02;;;;;;;14.20;11.90;;;6.20;99.90;;;;;;2610772;54;20395;-74
2021/11/22 09:17:28;;;;;;;19.13;11.50;;;6.30;99.90;;;;;;2609903;54;20947;-73
2021/11/22 09:19:54;;;;;;;14.70;12.57;;;6.50;99.90;;;;;;2611230;54;20415;-73
2021/11/22 09:22:20;;;;;;;11.60;10.40;;;6.60;99.90;;;;;;2611821;54;20481;-73
2021/11/22 09:24:46;;;;;;;14.00;10.83;;;6.60;99.90;;;;;;2610696;47;20172;-75
2021/11/22 09:27:13;;;;;;;13.40;11.57;;;6.80;99.90;;;;;;2612318;54;20139;-73
2021/11/22 09:29:39;;;;;;;16.17;12.57;;;6.60;99.90;;;;;;2609913;46;20186;-73
2021/11/22 09:32:06;;;;;;;12.30;8.63;;;6.60;99.90;;;;;;2610829;47;20530;-73
2021/11/22 09:34:32;;;;;;;16.70;11.53;;;6.40;99.90;;;;;;2612506;54;20456;-73
2021/11/22 09:36:58;;;;;;;17.47;10.43;;;6.30;99.90;;;;;;2612701;54;20503;-73
2021/11/22 09:39:24;;;;;;;11.67;10.37;;;6.20;99.90;;;;;;2611667;54;20515;-73
2021/11/22 09:41:51;;;;;;;11.50;9.53;;;6.20;99.90;;;;;;2612377;39;20834;-72
2021/11/22 09:44:20;;;;;;;14.83;11.63;;;6.20;99.90;;;;;;2613023;54;20404;-72
2021/11/22 09:46:47;;;;;;;14.20;10.87;;;6.10;99.90;;;;;;2613043;46;20471;-73
2021/11/22 09:49:13;;;;;;;11.70;10.60;;;6.30;99.90;;;;;;2613716;39;20816;-72
2021/11/22 09:51:39;;;;;;;15.30;12.83;;;6.50;99.90;;;;;;2611987;54;20503;-72
2021/11/22 09:54:05;;;;;;;16.20;11.90;;;6.70;99.90;;;;;;2611545;54;20418;-73
2021/11/22 09:56:32;;;;;;;15.47;11.90;;;6.50;99.90;;;;;;2612718;54;20511;-72
2021/11/22 09:58:58;;;;;;;15.97;12.57;;;6.10;99.90;;;;;;2613327;39;22068;-72
2021/11/22 10:01:25;;;;;;;19.00;13.97;;;5.90;99.90;;;;;;2612506;54;20599;-74
2021/11/22 10:04:07;;;;;;;17.40;13.90;;;6.20;99.90;;;;;;2612503;54;20407;-73
2021/11/22 10:06:50;;;;;;;15.33;13.20;;;7.50;99.90;;;;;;2612639;54;20434;-73
2021/11/22 10:09:32;;;;;;;19.73;14.57;;;8.40;99.90;;;;;;2612431;54;20415;-74
2021/11/22 10:12:06;;;;;;;17.17;13.97;;;9.20;98.10;;;;;;2614171;39;20814;-72
2021/11/22 10:14:43;;;;;;;18.20;12.90;;;9.60;96.80;;;;;;2613994;39;20790;-73
2021/11/22 10:17:20;;;;;;;16.63;13.67;;;10.00;95.30;;;;;;2612240;54;20496;-72
2021/11/22 10:19:46;;;;;;;15.87;13.00;;;9.80;96.40;;;;;;2612075;54;20408;-73
2021/11/22 10:22:20;;;;;;;15.50;13.07;;;9.10;97.10;;;;;;2612103;54;20395;-72
2021/11/22 10:24:46;;;;;;;15.47;12.10;;;9.80;96.20;;;;;;2611854;54;20539;-72
2021/11/22 10:27:38;;;;;;;14.30;12.13;;;11.10;92.20;;;;;;2612691;54;20403;-74
2021/11/22 10:30:25;;;;;;;12.80;10.70;;;12.00;89.30;;;;;;2613365;54;20419;-73
2021/11/22 10:32:59;;;;;;;10.53;8.93;;;12.90;83.70;;;;;;2611958;39;21093;-73
2021/11/22 10:35:28;;;;;;;8.60;7.70;;;12.10;84.40;;;;;;2612501;54;20433;-73
2021/11/22 10:38:28;;;;;;;11.33;8.60;;;12.70;80.80;;;;;;2612237;54;20423;-73
2021/11/22 10:41:09;;;;;;;7.73;7.00;;;13.10;78.60;;;;;;2612266;54;20443;-74
2021/11/22 10:43:51;;;;;;;10.57;9.30;;;13.30;74.40;;;;;;2612569;54;20471;-73
2021/11/22 10:46:24;;;;;;;10.33;8.10;;;12.60;76.60;;;;;;2611444;54;20400;-73
2021/11/22 10:48:53;;;;;;;9.37;8.37;;;13.00;72.00;;;;;;2613653;54;20440;-73
2021/11/22 10:51:27;;;;;;;8.60;7.33;;;12.80;73.70;;;;;;2612960;54;20411;-74
2021/11/22 10:54:06;;;;;;;8.77;7.93;;;12.30;76.00;;;;;;2611248;54;20399;-73
2021/11/22 10:56:44;;;;;;;8.63;7.73;;;13.10;71.90;;;;;;2609949;47;20423;-73
2021/11/22 10:59:21;;;;;;;7.80;7.03;;;14.20;67.80;;;;;;2613524;54;20967;-72
2021/11/22 11:01:56;;;;;;;9.83;7.37;;;14.80;63.70;;;;;;2609898;54;20403;-73
2021/11/22 11:04:27;;;;;;;9.83;7.07;;;14.30;65.20;;;;;;2608398;54;20422;-74
2021/11/22 11:06:57;;;;;;;7.00;6.07;;;14.40;63.80;;;;;;2609302;54;20959;-74
2021/11/22 11:09:26;;;;;;;7.33;6.67;;;15.00;60.40;;;;;;2611778;39;20982;-72
2021/11/22 11:12:05;;;;;;;5.37;4.90;;;15.70;58.50;;;;;;2610208;54;20380;-73
2021/11/22 11:14:33;;;;;;;5.90;5.03;;;14.60;58.40;;;;;;2613561;54;20904;-73
2021/11/22 11:17:17;;;;;;;8.20;4.30;;;15.00;57.40;;;;;;2612553;54;20371;-73
2021/11/22 11:19:48;;;;;;;3.90;3.50;;;14.30;57.60;;;;;;2612184;47;21030;-73
2021/11/22 11:22:15;;;;;;;5.53;4.20;;;13.50;59.70;;;;;;2610915;47;20984;-72
2021/11/22 11:24:43;;;;;;;8.53;4.00;;;13.50;59.70;;;;;;2612405;54;20407;-73
2021/11/22 11:27:09;;;;;;;4.07;3.77;;;14.00;58.30;;;;;;2611082;54;20400;-73
2021/11/22 11:29:35;;;;;;;4.30;3.90;;;13.60;59.00;;;;;;2611125;39;20806;-73
2021/11/22 11:32:01;;;;;;;4.10;3.67;;;13.50;59.20;;;;;;2607233;54;21015;-73
2021/11/22 11:34:32;;;;;;;3.27;3.03;;;13.30;59.10;;;;;;2608561;39;20803;-73
2021/11/22 11:37:18;;;;;;;4.27;3.87;;;14.50;55.40;;;;;;2607162;54;20399;-72
2021/11/22 11:40:17;;;;;;;3.80;3.50;;;14.60;55.20;;;;;;2610490;54;20435;-72
2021/11/22 11:43:07;;;;;;;3.50;3.20;;;14.60;54.90;;;;;;2611345;54;20439;-73
2021/11/22 11:45:42;;;;;;;3.53;3.23;;;14.90;54.90;;;;;;2608857;54;20511;-72
2021/11/22 11:48:32;;;;;;;4.70;4.20;;;14.90;55.20;;;;;;2609615;54;20418;-73
2021/11/22 11:51:11;;;;;;;3.83;3.63;;;15.00;54.50;;;;;;2607681;47;20565;-73
2021/11/22 11:53:38;;;;;;;3.87;3.50;;;15.50;52.60;;;;;;2609461;54;20466;-73
2021/11/22 11:56:12;;;;;;;3.43;3.23;;;15.30;52.10;;;;;;2608420;39;21254;-74
2021/11/22 11:58:41;;;;;;;4.00;3.60;;;14.80;53.20;;;;;;2608658;54;20413;-74
2021/11/22 12:01:18;;;;;;;3.90;3.40;;;15.50;51.90;;;;;;2606814;47;20426;-73
2021/11/22 12:04:05;;;;;;;3.60;3.27;;;16.00;49.00;;;;;;2608966;54;20438;-73
2021/11/22 12:06:50;;;;;;;3.30;3.00;;;15.60;50.70;;;;;;2608131;54;20446;-73
2021/11/22 12:09:38;;;;;;;4.90;2.70;;;15.10;52.00;;;;;;2608656;39;20841;-73
2021/11/22 12:12:07;;;;;;;3.87;2.80;;;14.20;54.00;;;;;;2609181;39;20799;-72
2021/11/22 12:14:48;;;;;;;3.43;3.13;;;14.30;53.90;;;;;;2608122;54;20418;-73
2021/11/22 12:17:43;;;;;;;4.20;3.77;;;14.40;52.20;;;;;;2611914;54;21035;-74
2021/11/22 12:20:34;;;;;;;5.27;3.17;;;14.60;52.50;;;;;;2612056;54;20415;-73
2021/11/22 12:23:09;;;;;;;5.13;2.90;;;15.40;49.20;;;;;;2608826;54;20507;-74
2021/11/22 12:25:38;;;;;;;2.83;2.63;;;15.80;48.80;;;;;;2609994;54;20976;-72
2021/11/22 12:28:10;;;;;;;2.47;2.27;;;15.10;48.30;;;;;;2607940;54;20423;-73
2021/11/22 12:30:46;;;;;;;3.33;2.50;;;13.80;51.60;;;;;;2610498;54;20400;-73
2021/11/22 12:33:20;;;;;;;2.87;2.33;;;13.10;52.80;;;;;;2609072;54;20447;-74
2021/11/22 12:35:56;;;;;;;1.97;1.80;;;13.30;52.00;;;;;;2610521;54;20959;-73
2021/11/22 12:38:27;;;;;;;5.60;2.43;;;14.00;50.40;;;;;;2608000;54;20940;-73
2021/11/22 12:40:59;;;;;;;2.97;2.30;;;14.40;49.60;;;;;;2610592;54;20395;-73
2021/11/22 12:43:45;;;;;;;2.20;2.00;;;14.40;49.30;;;;;;2610730;54;20411;-74
2021/11/22 12:46:14;;;;;;;1.90;1.70;;;13.80;49.90;;;;;;2610977;54;21345;-74
2021/11/22 12:48:44;;;;;;;3.10;2.00;;;13.50;51.10;;;;;;2610892;54;20461;-73
2021/11/22 12:51:22;;;;;;;2.50;2.03;;;13.30;51.10;;;;;;2611089;54;20484;-74
2021/11/22 12:54:12;;;;;;;3.40;2.40;;;13.80;50.40;;;;;;2609782;54;20396;-73